createdAt,value
2018-09-24T00:00:42.030Z,9.00
2018-09-24T00:03:10.615Z,9.10
2018-09-24T00:05:39.165Z,9.20
2018-09-24T00:08:07.761Z,9.10
2018-09-24T00:10:36.329Z,9.30
2018-09-24T00:13:04.953Z,9.20
2018-09-24T00:15:33.485Z,9.30
2018-09-24T00:18:02.045Z,9.30
2018-09-24T00:20:30.572Z,9.30
2018-09-24T00:22:59.186Z,9.20
2018-09-24T00:25:27.727Z,9.20
2018-09-24T00:27:56.279Z,9.10
2018-09-24T00:30:24.823Z,9.20
2018-09-24T00:32:53.369Z,9.30
2018-09-24T00:35:21.911Z,9.20
2018-09-24T00:37:50.457Z,9.30
2018-09-24T00:40:19.030Z,9.20
2018-09-24T00:42:47.609Z,9.30
2018-09-24T00:45:16.161Z,9.30
2018-09-24T00:47:44.729Z,9.40
2018-09-24T00:50:13.289Z,9.30
2018-09-24T00:52:41.872Z,9.40
2018-09-24T00:55:10.433Z,9.30
2018-09-24T00:57:39.022Z,9.40
2018-09-24T01:00:07.666Z,9.30
2018-09-24T01:02:36.228Z,9.40
2018-09-24T01:05:04.982Z,9.30
2018-09-24T01:07:33.510Z,9.30
2018-09-24T01:10:02.173Z,9.30
2018-09-24T01:12:30.713Z,9.20
2018-09-24T01:14:59.261Z,9.10
2018-09-24T01:17:27.804Z,9.10
2018-09-24T01:19:56.346Z,9.10
2018-09-24T01:22:24.877Z,9.00
2018-09-24T01:24:53.442Z,9.10
2018-09-24T01:27:21.992Z,9.10
2018-09-24T01:29:50.543Z,9.00
2018-09-24T01:32:19.087Z,9.00
2018-09-24T01:34:47.646Z,9.00
2018-09-24T01:37:16.191Z,9.00
2018-09-24T01:39:44.740Z,8.90
2018-09-24T01:42:13.262Z,8.90
2018-09-24T01:44:41.862Z,8.80
2018-09-24T01:47:10.398Z,8.80
2018-09-24T01:49:38.995Z,8.80
2018-09-24T01:52:07.581Z,8.80
2018-09-24T01:54:36.146Z,8.90
2018-09-24T01:57:05.353Z,8.70
2018-09-24T01:59:33.865Z,8.70
2018-09-24T02:02:02.471Z,8.70
2018-09-24T02:04:30.994Z,8.60
2018-09-24T02:07:01.720Z,8.70
2018-09-24T02:09:30.763Z,8.70
2018-09-24T02:12:06.847Z,8.60
2018-09-24T02:14:36.033Z,8.60
2018-09-24T02:17:04.707Z,8.60
2018-09-24T02:19:33.808Z,8.50
2018-09-24T02:22:02.379Z,8.60
2018-09-24T02:24:30.920Z,8.60
2018-09-24T02:26:59.615Z,8.60
2018-09-24T02:29:28.134Z,8.60
2018-09-24T02:31:56.695Z,8.70
2018-09-24T02:34:27.665Z,8.60
2018-09-24T02:36:56.208Z,8.50
2018-09-24T02:39:24.733Z,8.60
2018-09-24T02:41:54.742Z,8.60
2018-09-24T02:44:24.759Z,8.60
2018-09-24T02:46:53.508Z,8.60
2018-09-24T02:49:22.092Z,8.50
2018-09-24T02:51:50.961Z,8.40
2018-09-24T02:54:19.642Z,8.30
2018-09-24T02:56:49.555Z,8.40
2018-09-24T02:59:18.531Z,8.40
2018-09-24T03:01:47.186Z,8.20
2018-09-24T03:04:15.731Z,8.20
2018-09-24T03:06:44.298Z,8.20
2018-09-24T03:09:15.878Z,8.20
2018-09-24T03:11:44.723Z,8.20
2018-09-24T03:14:13.346Z,8.20
2018-09-24T03:16:41.940Z,8.30
2018-09-24T03:19:10.554Z,8.30
2018-09-24T03:21:39.162Z,8.10
2018-09-24T03:24:07.794Z,8.00
2018-09-24T03:26:40.824Z,8.10
2018-09-24T03:29:09.967Z,8.00
2018-09-24T03:31:38.551Z,8.00
2018-09-24T03:34:08.522Z,7.90
2018-09-24T03:36:37.105Z,8.00
2018-09-24T03:39:06.714Z,8.00
2018-09-24T03:41:35.302Z,7.90
2018-09-24T03:44:03.885Z,7.90
2018-09-24T03:46:32.442Z,7.90
2018-09-24T03:49:01.003Z,7.90
2018-09-24T03:51:29.667Z,7.90
2018-09-24T03:53:58.258Z,8.00
2018-09-24T03:56:26.812Z,7.90
2018-09-24T03:58:55.405Z,7.90
2018-09-24T04:01:25.081Z,7.90
2018-09-24T04:06:59.301Z,7.90
2018-09-24T04:09:33.266Z,7.90
2018-09-24T04:12:07.116Z,7.90
2018-09-24T04:14:41.078Z,7.80
2018-09-24T04:17:15.003Z,7.90
2018-09-24T04:19:48.999Z,7.90
2018-09-24T04:22:22.807Z,7.70
2018-09-24T04:24:56.634Z,7.70
2018-09-24T04:27:30.544Z,7.70
2018-09-24T04:30:04.463Z,7.60
2018-09-24T04:32:38.321Z,7.60
2018-09-24T04:35:14.227Z,7.70
2018-09-24T04:37:48.157Z,7.70
2018-09-24T04:40:22.150Z,7.60
2018-09-24T04:42:56.109Z,7.70
2018-09-24T04:45:30.078Z,7.70
2018-09-24T04:48:04.012Z,7.70
2018-09-24T04:50:37.816Z,7.80
2018-09-24T04:53:11.690Z,7.80
2018-09-24T04:55:45.590Z,7.70
2018-09-24T04:58:19.548Z,7.80
2018-09-24T05:00:53.514Z,7.80
2018-09-24T05:03:27.456Z,7.80
2018-09-24T05:06:01.294Z,7.70
2018-09-24T05:08:35.172Z,7.70
2018-09-24T05:11:09.353Z,7.80
2018-09-24T05:13:43.316Z,7.80
2018-09-24T05:16:17.295Z,7.80
2018-09-24T05:18:51.190Z,7.70
2018-09-24T05:21:25.120Z,7.70
2018-09-24T05:23:58.974Z,7.60
2018-09-24T05:26:32.907Z,7.50
2018-09-24T05:29:06.704Z,7.60
2018-09-24T05:31:40.638Z,7.60
2018-09-24T05:34:14.746Z,7.80
2018-09-24T05:36:48.737Z,7.70
2018-09-24T05:39:22.747Z,7.90
2018-09-24T05:41:56.668Z,7.70
2018-09-24T05:44:30.625Z,7.60
2018-09-24T05:47:04.533Z,7.60
2018-09-24T05:49:38.459Z,7.60
2018-09-24T05:52:12.678Z,7.70
2018-09-24T05:54:46.681Z,7.70
2018-09-24T05:57:20.561Z,7.80
2018-09-24T05:59:54.506Z,7.90
2018-09-24T06:02:28.527Z,8.10
2018-09-24T06:05:03.582Z,8.20
2018-09-24T06:07:37.615Z,8.40
2018-09-24T06:10:11.555Z,8.60
2018-09-24T06:12:45.505Z,8.80
2018-09-24T06:15:19.514Z,8.90
2018-09-24T06:17:53.351Z,9.10
2018-09-24T06:20:27.213Z,9.20
2018-09-24T06:23:01.267Z,9.30
2018-09-24T06:25:35.045Z,9.50
2018-09-24T06:28:08.890Z,9.50
2018-09-24T06:30:42.762Z,9.70
2018-09-24T06:33:16.591Z,9.90
2018-09-24T06:35:50.292Z,10.10
2018-09-24T06:38:24.046Z,10.20
2018-09-24T06:40:58.041Z,10.30
2018-09-24T06:43:32.058Z,10.40
2018-09-24T06:46:05.839Z,10.50
2018-09-24T06:48:39.778Z,10.50
2018-09-24T06:51:13.680Z,10.40
2018-09-24T06:53:47.663Z,10.50
2018-09-24T06:56:21.544Z,10.60
2018-09-24T06:58:55.367Z,10.80
2018-09-24T07:01:29.201Z,10.80
2018-09-24T07:04:03.150Z,11.10
2018-09-24T07:06:37.073Z,11.00
2018-09-24T07:09:13.360Z,11.00
2018-09-24T07:11:47.474Z,11.00
2018-09-24T07:14:21.302Z,11.30
2018-09-24T07:16:55.255Z,11.20
2018-09-24T07:19:29.413Z,11.50
2018-09-24T07:22:03.462Z,11.70
2018-09-24T07:24:37.369Z,11.80
2018-09-24T07:27:11.196Z,11.80
2018-09-24T07:29:45.269Z,12.00
2018-09-24T07:32:19.370Z,11.90
2018-09-24T07:34:53.344Z,11.90
2018-09-24T07:37:27.239Z,12.20
2018-09-24T07:40:01.116Z,12.50
2018-09-24T07:42:35.168Z,12.50
2018-09-24T07:45:10.152Z,12.40
2018-09-24T07:47:44.114Z,12.20
2018-09-24T07:50:18.043Z,12.30
2018-09-24T07:52:52.039Z,11.90
2018-09-24T07:55:25.919Z,12.10
2018-09-24T07:57:59.871Z,12.40
2018-09-24T08:00:33.959Z,12.50
2018-09-24T08:03:08.001Z,12.60
2018-09-24T08:05:41.897Z,12.60
2018-09-24T08:08:15.650Z,12.50
2018-09-24T08:10:49.526Z,12.60
2018-09-24T08:13:23.378Z,12.80
2018-09-24T08:15:57.422Z,13.20
2018-09-24T08:18:31.336Z,13.10
2018-09-24T08:21:05.401Z,12.70
2018-09-24T08:23:39.130Z,13.00
2018-09-24T08:26:13.157Z,13.10
2018-09-24T08:28:47.224Z,13.40
2018-09-24T08:31:21.236Z,13.50
2018-09-24T08:33:55.167Z,13.10
2018-09-24T08:36:29.088Z,13.30
2018-09-24T08:39:03.043Z,13.40
2018-09-24T08:41:37.136Z,13.20
2018-09-24T08:44:11.057Z,13.20
2018-09-24T08:46:45.177Z,13.40
2018-09-24T08:49:19.085Z,13.30
2018-09-24T08:51:52.852Z,13.60
2018-09-24T08:54:26.748Z,14.00
2018-09-24T08:57:00.634Z,14.00
2018-09-24T08:59:34.450Z,14.10
2018-09-24T09:02:08.463Z,14.10
2018-09-24T09:04:42.385Z,14.50
2018-09-24T09:07:16.322Z,14.50
2018-09-24T09:09:50.299Z,14.00
2018-09-24T09:12:24.274Z,14.20
2018-09-24T09:14:58.107Z,14.50
2018-09-24T09:17:32.058Z,14.60
2018-09-24T09:20:06.035Z,14.70
2018-09-24T09:22:40.066Z,14.80
2018-09-24T09:25:13.631Z,15.10
2018-09-24T09:27:47.585Z,14.80
2018-09-24T09:30:21.544Z,14.30
2018-09-24T09:32:55.510Z,14.80
2018-09-24T09:35:30.437Z,14.90
2018-09-24T09:38:04.286Z,14.70
2018-09-24T09:40:38.119Z,14.40
2018-09-24T09:43:12.317Z,14.70
2018-09-24T09:45:46.229Z,14.80
2018-09-24T09:48:20.097Z,14.80
2018-09-24T09:50:53.950Z,14.70
2018-09-24T09:53:27.779Z,14.40
2018-09-24T09:56:01.696Z,14.40
2018-09-24T09:58:35.640Z,14.60
2018-09-24T10:01:09.523Z,15.00
2018-09-24T10:03:43.543Z,15.30
2018-09-24T10:06:17.534Z,15.40
2018-09-24T10:08:51.415Z,15.60
2018-09-24T10:11:25.357Z,15.50
2018-09-24T10:13:59.138Z,15.20
2018-09-24T10:16:34.129Z,15.30
2018-09-24T10:19:07.953Z,15.40
2018-09-24T10:21:42.755Z,15.30
2018-09-24T10:24:16.635Z,15.40
2018-09-24T10:26:50.529Z,15.80
2018-09-24T10:29:24.523Z,15.90
2018-09-24T10:31:58.344Z,15.90
2018-09-24T10:34:32.174Z,16.50
2018-09-24T10:37:06.057Z,16.30
2018-09-24T10:39:39.791Z,16.30
2018-09-24T10:42:13.856Z,16.20
2018-09-24T10:44:47.825Z,15.90
2018-09-24T10:47:21.730Z,16.10
2018-09-24T10:49:55.726Z,16.30
2018-09-24T10:52:29.630Z,16.60
2018-09-24T10:55:03.516Z,16.70
2018-09-24T10:57:37.425Z,16.70
2018-09-24T11:00:11.352Z,16.70
2018-09-24T11:02:45.195Z,17.10
2018-09-24T11:05:19.100Z,16.80
2018-09-24T11:07:53.061Z,16.50
2018-09-24T11:10:27.043Z,16.70
2018-09-24T11:13:01.001Z,16.90
2018-09-24T11:15:34.907Z,17.00
2018-09-24T11:18:08.920Z,17.40
2018-09-24T11:20:42.811Z,17.30
2018-09-24T11:23:16.644Z,17.50
2018-09-24T11:25:50.450Z,17.50
2018-09-24T11:28:24.351Z,17.40
2018-09-24T11:30:58.127Z,17.50
2018-09-24T11:33:31.973Z,17.50
2018-09-24T11:36:05.911Z,17.60
2018-09-24T11:38:39.786Z,17.90
2018-09-24T11:41:13.664Z,17.90
2018-09-24T11:43:47.687Z,17.60
2018-09-24T11:46:21.589Z,17.70
2018-09-24T11:48:55.577Z,18.00
2018-09-24T11:51:29.702Z,18.10
2018-09-24T11:54:03.608Z,17.90
2018-09-24T11:56:37.488Z,17.80
2018-09-24T11:59:11.445Z,17.60
2018-09-24T12:01:45.403Z,17.70
2018-09-24T12:04:19.310Z,17.50
2018-09-24T12:06:53.215Z,17.70
2018-09-24T12:09:27.202Z,17.90
2018-09-24T12:12:01.067Z,17.70
2018-09-24T12:14:34.904Z,18.10
2018-09-24T12:17:08.896Z,18.30
2018-09-24T12:19:42.801Z,18.20
2018-09-24T12:22:16.759Z,18.00
2018-09-24T12:24:50.753Z,18.00
2018-09-24T12:27:24.652Z,17.60
2018-09-24T12:29:58.446Z,17.80
2018-09-24T12:32:33.435Z,17.80
2018-09-24T12:35:07.241Z,17.90
2018-09-24T12:37:41.103Z,17.60
2018-09-24T12:40:15.120Z,17.50
2018-09-24T12:42:49.136Z,18.00
2018-09-24T12:45:23.011Z,17.80
2018-09-24T12:47:57.018Z,17.40
2018-09-24T12:50:30.975Z,16.90
2018-09-24T12:53:04.901Z,16.40
2018-09-24T12:55:38.691Z,16.30
2018-09-24T12:58:12.678Z,16.00
2018-09-24T13:00:46.588Z,16.10
2018-09-24T13:03:22.649Z,16.20
2018-09-24T13:05:56.491Z,16.60
2018-09-24T13:08:30.386Z,17.00
2018-09-24T13:11:04.501Z,17.30
2018-09-24T13:13:38.539Z,17.60
2018-09-24T13:16:12.755Z,17.90
2018-09-24T13:18:46.655Z,17.50
2018-09-24T13:21:20.550Z,16.80
2018-09-24T13:23:54.575Z,16.70
2018-09-24T13:26:29.403Z,16.70
2018-09-24T13:29:04.269Z,17.00
2018-09-24T13:31:38.412Z,16.90
2018-09-24T13:34:12.404Z,17.50
2018-09-24T13:36:47.387Z,17.30
2018-09-24T13:39:22.480Z,17.00
2018-09-24T13:41:56.431Z,16.60
2018-09-24T13:44:30.235Z,16.50
2018-09-24T13:47:04.139Z,16.30
2018-09-24T13:49:38.084Z,16.30
2018-09-24T13:52:12.076Z,16.30
2018-09-24T13:54:45.906Z,16.20
2018-09-24T13:57:19.810Z,16.10
2018-09-24T13:59:53.852Z,16.20
2018-09-24T14:02:27.853Z,16.30
2018-09-24T14:05:01.782Z,16.10
2018-09-24T14:07:35.804Z,16.00
2018-09-24T14:10:09.704Z,15.80
2018-09-24T14:12:43.741Z,15.70
2018-09-24T14:15:17.700Z,15.60
2018-09-24T14:17:51.645Z,15.60
2018-09-24T14:20:25.542Z,15.70
2018-09-24T14:22:59.445Z,15.90
2018-09-24T14:25:33.314Z,16.30
2018-09-24T14:28:07.313Z,16.00
2018-09-24T14:30:41.200Z,15.80
2018-09-24T14:33:17.250Z,15.90
2018-09-24T14:35:51.055Z,16.00
2018-09-24T14:38:24.990Z,16.10
2018-09-24T14:40:58.939Z,16.10
2018-09-24T14:43:32.912Z,15.90
2018-09-24T14:46:06.804Z,16.00
2018-09-24T14:48:40.692Z,16.00
2018-09-24T14:51:14.550Z,15.80
2018-09-24T14:53:48.485Z,15.70
2018-09-24T14:56:22.575Z,15.80
2018-09-24T14:58:56.430Z,15.90
2018-09-24T15:01:30.298Z,16.10
2018-09-24T15:04:04.366Z,15.90
2018-09-24T15:06:38.180Z,15.70
2018-09-24T15:09:13.210Z,15.50
2018-09-24T15:11:47.091Z,15.40
2018-09-24T15:14:20.965Z,15.60
2018-09-24T15:16:54.803Z,15.40
2018-09-24T15:19:28.642Z,15.20
2018-09-24T15:22:02.648Z,15.20
2018-09-24T15:24:36.555Z,15.20
2018-09-24T15:27:10.399Z,14.90
2018-09-24T15:29:44.614Z,15.10
2018-09-24T15:32:18.601Z,15.10
2018-09-24T15:34:52.601Z,15.20
2018-09-24T15:37:29.671Z,15.30
2018-09-24T15:40:03.495Z,15.10
2018-09-24T15:42:37.304Z,15.10
2018-09-24T15:45:11.258Z,15.00
2018-09-24T15:47:45.205Z,14.90
2018-09-24T15:50:19.270Z,14.80
2018-09-24T15:52:53.150Z,14.80
2018-09-24T15:55:27.031Z,14.90
2018-09-24T15:58:00.946Z,14.70
2018-09-24T16:00:34.922Z,14.70
2018-09-24T16:03:08.868Z,14.70
2018-09-24T16:05:42.719Z,14.70
2018-09-24T16:08:16.555Z,14.60
2018-09-24T16:10:50.512Z,14.70
2018-09-24T16:13:24.431Z,14.70
2018-09-24T16:15:58.315Z,14.70
2018-09-24T16:18:32.319Z,14.60
2018-09-24T16:21:06.178Z,14.60
2018-09-24T16:23:40.134Z,14.60
2018-09-24T16:26:14.062Z,14.70
2018-09-24T16:28:48.000Z,14.60
2018-09-24T16:31:21.911Z,14.50
2018-09-24T16:33:55.822Z,14.50
2018-09-24T16:36:29.903Z,14.30
2018-09-24T16:39:04.838Z,14.30
2018-09-24T16:41:38.836Z,14.20
2018-09-24T16:44:12.656Z,14.10
2018-09-24T16:46:46.739Z,14.20
2018-09-24T16:49:20.696Z,14.10
2018-09-24T16:51:54.603Z,14.00
2018-09-24T16:54:28.584Z,14.00
2018-09-24T16:57:02.499Z,14.00
2018-09-24T16:59:36.471Z,14.00
2018-09-24T17:02:10.520Z,13.80
2018-09-24T17:04:44.379Z,13.90
2018-09-24T17:07:18.354Z,13.90
2018-09-24T17:09:52.256Z,13.80
2018-09-24T17:12:26.190Z,13.80
2018-09-24T17:15:00.279Z,13.70
2018-09-24T17:17:34.410Z,13.60
2018-09-24T17:20:08.338Z,13.60
2018-09-24T17:22:42.286Z,13.50
2018-09-24T17:25:16.309Z,13.50
2018-09-24T17:27:50.275Z,13.50
2018-09-24T17:30:24.209Z,13.40
2018-09-24T17:32:58.132Z,13.40
2018-09-24T17:35:32.069Z,13.50
2018-09-24T17:38:06.021Z,13.30
2018-09-24T17:40:39.798Z,13.30
2018-09-24T17:43:13.562Z,13.30
2018-09-24T17:45:47.367Z,13.20
2018-09-24T17:48:21.306Z,13.30
2018-09-24T17:50:55.332Z,13.40
2018-09-24T17:53:29.278Z,13.40
2018-09-24T17:56:03.202Z,13.30
2018-09-24T17:58:37.195Z,13.30
2018-09-24T18:01:11.397Z,13.20
2018-09-24T18:03:45.317Z,13.10
2018-09-24T18:06:19.129Z,13.10
2018-09-24T18:08:53.067Z,13.00
2018-09-24T18:11:27.110Z,12.90
2018-09-24T18:14:00.967Z,12.90
2018-09-24T18:16:34.811Z,12.80
2018-09-24T18:19:08.787Z,12.80
2018-09-24T18:21:42.680Z,12.70
2018-09-24T18:24:16.693Z,12.60
2018-09-24T18:26:50.730Z,12.60
2018-09-24T18:29:24.748Z,12.60
2018-09-24T18:31:58.570Z,12.50
2018-09-24T18:34:32.422Z,12.50
2018-09-24T18:37:06.383Z,12.50
2018-09-24T18:39:40.312Z,12.60
2018-09-24T18:42:14.306Z,12.70
2018-09-24T18:44:48.215Z,12.70
2018-09-24T18:47:22.197Z,12.70
2018-09-24T18:49:56.145Z,12.80
2018-09-24T18:52:29.922Z,12.90
2018-09-24T18:55:03.697Z,12.80
2018-09-24T18:57:37.608Z,12.70
2018-09-24T19:00:12.110Z,12.60
2018-09-24T19:02:46.141Z,12.40
2018-09-24T19:05:20.037Z,12.30
2018-09-24T19:07:53.954Z,12.10
2018-09-24T19:10:27.933Z,12.10
2018-09-24T19:13:01.878Z,12.10
2018-09-24T19:15:35.704Z,12.00
2018-09-24T19:18:09.628Z,11.90
2018-09-24T19:20:43.536Z,11.90
2018-09-24T19:23:17.475Z,11.70
2018-09-24T19:25:51.397Z,11.50
2018-09-24T19:28:26.165Z,11.50
2018-09-24T19:31:00.072Z,11.60
2018-09-24T19:33:35.019Z,11.70
2018-09-24T19:36:08.876Z,11.80
2018-09-24T19:38:42.880Z,11.70
2018-09-24T19:41:16.713Z,11.70
2018-09-24T19:43:50.531Z,11.60
2018-09-24T19:46:24.302Z,11.50
2018-09-24T19:48:58.204Z,11.60
2018-09-24T19:51:32.078Z,11.70
2018-09-24T19:54:05.916Z,11.70
2018-09-24T19:56:39.840Z,11.60
2018-09-24T19:59:13.862Z,11.60
2018-09-24T20:01:47.807Z,11.50
2018-09-24T20:04:21.617Z,11.60
2018-09-24T20:06:55.522Z,11.70
2018-09-24T20:09:29.527Z,11.60
2018-09-24T20:12:03.267Z,11.50
2018-09-24T20:14:37.249Z,11.60
2018-09-24T20:17:12.204Z,11.70
2018-09-24T20:19:48.076Z,11.60
2018-09-24T20:22:22.063Z,11.50
2018-09-24T20:24:57.063Z,11.50
2018-09-24T20:27:30.963Z,11.40
2018-09-24T20:30:04.940Z,11.50
2018-09-24T20:32:38.898Z,11.50
2018-09-24T20:35:12.825Z,11.60
2018-09-24T20:37:46.742Z,11.50
2018-09-24T20:40:21.596Z,11.70
2018-09-24T20:42:55.622Z,11.80
2018-09-24T20:45:29.406Z,11.70
2018-09-24T20:48:03.296Z,11.70
2018-09-24T20:50:38.366Z,11.70
2018-09-24T20:53:12.350Z,11.80
2018-09-24T20:55:46.253Z,11.80
2018-09-24T20:58:20.084Z,11.70
2018-09-24T21:00:53.943Z,11.60
2018-09-24T21:03:27.980Z,11.50
2018-09-24T21:06:01.749Z,11.40
2018-09-24T21:08:35.717Z,11.10
2018-09-24T21:11:09.594Z,10.80
2018-09-24T21:13:43.495Z,10.90
2018-09-24T21:16:17.483Z,10.80
2018-09-24T21:18:52.441Z,10.60
2018-09-24T21:21:26.278Z,10.70
2018-09-24T21:24:00.131Z,10.70
2018-09-24T21:26:34.178Z,10.80
2018-09-24T21:29:08.112Z,10.70
2018-09-24T21:31:42.000Z,10.50
2018-09-24T21:34:15.915Z,10.30
2018-09-24T21:36:49.874Z,10.40
2018-09-24T21:39:23.620Z,10.20
2018-09-24T21:41:57.572Z,10.10
2018-09-24T21:44:31.412Z,10.20
2018-09-24T21:47:05.280Z,10.10
2018-09-24T21:49:39.126Z,9.90
2018-09-24T21:52:13.034Z,9.60
2018-09-24T21:54:47.009Z,9.40
2018-09-24T21:57:20.873Z,9.60
2018-09-24T21:59:54.835Z,9.60
2018-09-24T22:02:28.751Z,9.50
2018-09-24T22:05:02.691Z,9.30
2018-09-24T22:07:36.526Z,9.50
2018-09-24T22:10:10.370Z,9.40
2018-09-24T22:12:44.566Z,9.30
2018-09-24T22:15:18.413Z,9.10
2018-09-24T22:17:52.342Z,9.10
2018-09-24T22:20:26.269Z,8.80
2018-09-24T22:23:00.161Z,8.90
2018-09-24T22:25:34.043Z,8.70
2018-09-24T22:28:07.783Z,8.70
2018-09-24T22:30:41.754Z,8.80
2018-09-24T22:33:15.795Z,8.70
2018-09-24T22:35:49.717Z,8.60
2018-09-24T22:38:23.705Z,8.70
2018-09-24T22:40:57.500Z,8.50
2018-09-24T22:43:31.441Z,8.40
2018-09-24T22:46:05.423Z,8.30
2018-09-24T22:48:39.366Z,8.20
2018-09-24T22:51:13.253Z,8.20
2018-09-24T22:53:47.082Z,8.10
2018-09-24T22:56:20.942Z,8.10
2018-09-24T22:58:55.004Z,8.10
2018-09-24T23:01:28.957Z,8.10
2018-09-24T23:04:02.919Z,8.00
2018-09-24T23:06:36.788Z,8.10
2018-09-24T23:09:12.587Z,8.00
2018-09-24T23:11:46.559Z,7.70
2018-09-24T23:14:20.365Z,7.50
2018-09-24T23:16:54.241Z,7.10
2018-09-24T23:19:28.077Z,7.20
2018-09-24T23:22:01.951Z,6.50
2018-09-24T23:24:35.750Z,6.70
2018-09-24T23:27:09.425Z,6.90
2018-09-24T23:29:43.203Z,7.10
2018-09-24T23:32:17.103Z,7.20
2018-09-24T23:34:50.930Z,7.30
2018-09-24T23:37:24.852Z,7.40
2018-09-24T23:39:58.633Z,7.30
2018-09-24T23:42:32.459Z,7.10
2018-09-24T23:45:06.263Z,7.20
2018-09-24T23:47:40.133Z,7.30
2018-09-24T23:50:13.978Z,7.20
2018-09-24T23:52:47.846Z,6.90
2018-09-24T23:55:21.674Z,7.00
2018-09-24T23:57:55.575Z,7.10
